Explorer Of The Seas — C6SE4 — position and weather

sailwx.info

Track history (hours):
 
Tides and Currents Weather Stations Pressure Air Temp Water Temp Dewpoint Dewpoint Depression Visibility Wind Speed Wind Dir Waves Ship Positions

Explorer Of The Seas

Operator: Royal Caribbean Cruises Ltd

Last reported at 2014-Aug-30 15:33 UTC. Time now 2014-Aug-30 16:27 UTC.
Position N 43°39' W 070°15'.

Length 311 m; draft 9.2 m.

Type: Passenger vessel. MMSI: 311316000.

Date/timePositionNaut miles runAvg speedWind from/ knotsBaromVisibWave heightAir tempDewpointWater temp
2014-Aug-30 15:33N 43°39' W 070°15'0 0.0
2014-Aug-30 14:33N 43°39' W 070°15'0 0.0
2014-Aug-30 13:33N 43°39' W 070°15'0 0.0
2014-Aug-30 12:33N 43°39' W 070°15'0 0.0
2014-Aug-30 11:33N 43°39' W 070°15'6 5.5
2014-Aug-30 10:33N 43°35' W 070°10'1312.7
2014-Aug-30 09:33N 43°24' W 070°01'1212.3
2014-Aug-30 08:33N 43°13' W 069°55'1212.0
2014-Aug-30 07:33N 43°01' W 069°50'1312.5
2014-Aug-30 06:33N 42°49' W 069°45'1312.5
2014-Aug-30 05:31N 42°37' W 069°39'1212.5
2014-Aug-30 04:32N 42°25' W 069°34'1312.5
2014-Aug-30 03:30N 42°13' W 069°29'1212.9
2014-Aug-30 02:32N 42°01' W 069°24'1313.0
2014-Aug-30 01:33N 41°49' W 069°18'1312.8
2014-Aug-30 00:33N 41°37' W 069°13'1312.8
2014-Aug-29 23:33N 41°25' W 069°08'1312.7
2014-Aug-29 22:33N 41°13' W 069°02'1312.7
2014-Aug-29 21:31N 41°00' W 068°57'1212.4
2014-Aug-29 20:33N 40°49' W 068°52'2811.8
2014-Aug-29 18:12N 40°26' W 069°15'1013.3
2014-Aug-29 17:28N 40°26' W 069°27'1213.2
2014-Aug-29 16:33N 40°26' W 069°43'1312.9
2014-Aug-29 15:33N 40°25' W 070°00'1412.8
2014-Aug-29 14:29N 40°25' W 070°18'1212.8
2014-Aug-29 13:33N 40°25' W 070°34'1312.9
2014-Aug-29 12:33N 40°24' W 070°51'1312.8
2014-Aug-29 11:33N 40°24' W 071°07'1312.7
2014-Aug-29 10:33N 40°24' W 071°24'1312.8
2014-Aug-29 09:33N 40°23' W 071°41'1312.8
2014-Aug-29 08:34N 40°23' W 071°58'1312.7
2014-Aug-29 07:33N 40°23' W 072°14'1312.7
2014-Aug-29 06:34N 40°22' W 072°31'1312.9
2014-Aug-29 05:33N 40°22' W 072°48'1313.2
2014-Aug-29 04:33N 40°22' W 073°05'1513.3
2014-Aug-29 03:26N 40°24' W 073°25'1413.0
2014-Aug-29 02:22N 40°26' W 073°43'1012.7
2014-Aug-29 01:34N 40°29' W 073°55'1212.4
2014-Aug-29 00:33N 40°40' W 074°04'0 0.1
2014-Aug-28 23:32N 40°40' W 074°04'0 0.0
2014-Aug-28 22:32N 40°40' W 074°04'0 0.0
2014-Aug-28 21:32N 40°40' W 074°04'0 0.0
2014-Aug-28 20:32N 40°40' W 074°04'0 0.0
2014-Aug-28 19:32N 40°40' W 074°04'0 0.0
2014-Aug-28 18:32N 40°40' W 074°04'0 0.0
2014-Aug-28 17:32N 40°40' W 074°04'0 0.0
2014-Aug-28 16:32N 40°40' W 074°04'0 0.0
2014-Aug-28 15:32N 40°40' W 074°04'0 0.0
2014-Aug-28 14:32N 40°40' W 074°04'0 0.0
2014-Aug-28 13:32N 40°40' W 074°04'0 0.0
2014-Aug-28 12:32N 40°40' W 074°04'0 0.0
2014-Aug-28 11:33N 40°40' W 074°04'5 5.0
2014-Aug-28 10:33N 40°35' W 074°02'1312.8
2014-Aug-28 09:33N 40°27' W 073°49'1211.9
2014-Aug-28 08:33N 40°20' W 073°36'1312.6
2014-Aug-28 07:34N 40°13' W 073°23'1312.5
2014-Aug-28 06:33N 40°05' W 073°10'1312.7
2014-Aug-28 05:33N 39°57' W 072°58'1312.7
2014-Aug-28 04:34N 39°48' W 072°45'1312.9
2014-Aug-28 03:34N 39°38' W 072°34'1312.5
2014-Aug-28 02:30N 39°29' W 072°23'1212.9
2014-Aug-28 01:33N 39°20' W 072°12'1312.9
2014-Aug-28 00:33N 39°10' W 072°01'1313.0
2014-Aug-27 23:34N 39°01' W 071°50'1613.8
2014-Aug-27 22:26N 38°49' W 071°36'1214.0
2014-Aug-27 21:33N 38°40' W 071°26'1413.8
2014-Aug-27 20:31N 38°29' W 071°14'  
2014-Aug-25 10:00N 33°00' W 065°12'41516.1 190 / 25 22.0
2014-Aug-24 08:10N 38°05' W 070°58'1319.0
2014-Aug-24 07:30N 38°14' W 071°09'1919.6
2014-Aug-24 06:33N 38°27' W 071°26'1919.3
2014-Aug-24 05:33N 38°41' W 071°43'1918.7
2014-Aug-24 04:33N 38°54' W 071°60'1919.3
2014-Aug-24 03:33N 39°08' W 072°18'1919.4
2014-Aug-24 02:33N 39°23' W 072°34'2019.1
2014-Aug-24 01:30N 39°37' W 072°52'1819.3
2014-Aug-24 00:33N 39°50' W 073°09'1919.2
2014-Aug-23 23:33N 40°05' W 073°24'2118.8
2014-Aug-23 22:27N 40°20' W 073°42'1415.3
2014-Aug-23 21:33N 40°30' W 073°56'1212.2
2014-Aug-23 20:34N 40°40' W 074°04'0 0.1
2014-Aug-23 19:33N 40°40' W 074°04'  
Track history (hours):
 
Tides and Currents Weather Stations Pressure Air Temp Water Temp Dewpoint Dewpoint Depression Visibility Wind Speed Wind Dir Waves Ship Positions

Explorer Of The Seas

Operator: Royal Caribbean Cruises Ltd

Last reported at 2014-Aug-30 15:33 UTC. Time now 2014-Aug-30 16:27 UTC.
Position N 43°39' W 070°15'.

Length 311 m; draft 9.2 m.

Type: Passenger vessel. MMSI: 311316000.

Date/timePositionNaut miles runAvg speedWind from/ knotsBaromVisibWave heightAir tempDewpointWater temp
2014-Aug-30 15:33N 43°39' W 070°15'0 0.0
2014-Aug-30 14:33N 43°39' W 070°15'0 0.0
2014-Aug-30 13:33N 43°39' W 070°15'0 0.0
2014-Aug-30 12:33N 43°39' W 070°15'0 0.0
2014-Aug-30 11:33N 43°39' W 070°15'6 5.5
2014-Aug-30 10:33N 43°35' W 070°10'1312.7
2014-Aug-30 09:33N 43°24' W 070°01'1212.3
2014-Aug-30 08:33N 43°13' W 069°55'1212.0
2014-Aug-30 07:33N 43°01' W 069°50'1312.5
2014-Aug-30 06:33N 42°49' W 069°45'1312.5
2014-Aug-30 05:31N 42°37' W 069°39'1212.5
2014-Aug-30 04:32N 42°25' W 069°34'1312.5
2014-Aug-30 03:30N 42°13' W 069°29'1212.9
2014-Aug-30 02:32N 42°01' W 069°24'1313.0
2014-Aug-30 01:33N 41°49' W 069°18'1312.8
2014-Aug-30 00:33N 41°37' W 069°13'1312.8
2014-Aug-29 23:33N 41°25' W 069°08'1312.7
2014-Aug-29 22:33N 41°13' W 069°02'1312.7
2014-Aug-29 21:31N 41°00' W 068°57'1212.4
2014-Aug-29 20:33N 40°49' W 068°52'2811.8
2014-Aug-29 18:12N 40°26' W 069°15'1013.3
2014-Aug-29 17:28N 40°26' W 069°27'1213.2
2014-Aug-29 16:33N 40°26' W 069°43'1312.9
2014-Aug-29 15:33N 40°25' W 070°00'1412.8
2014-Aug-29 14:29N 40°25' W 070°18'1212.8
2014-Aug-29 13:33N 40°25' W 070°34'1312.9
2014-Aug-29 12:33N 40°24' W 070°51'1312.8
2014-Aug-29 11:33N 40°24' W 071°07'1312.7
2014-Aug-29 10:33N 40°24' W 071°24'1312.8
2014-Aug-29 09:33N 40°23' W 071°41'1312.8
2014-Aug-29 08:34N 40°23' W 071°58'1312.7
2014-Aug-29 07:33N 40°23' W 072°14'1312.7
2014-Aug-29 06:34N 40°22' W 072°31'1312.9
2014-Aug-29 05:33N 40°22' W 072°48'1313.2
2014-Aug-29 04:33N 40°22' W 073°05'1513.3
2014-Aug-29 03:26N 40°24' W 073°25'1413.0
2014-Aug-29 02:22N 40°26' W 073°43'1012.7
2014-Aug-29 01:34N 40°29' W 073°55'1212.4
2014-Aug-29 00:33N 40°40' W 074°04'0 0.1
2014-Aug-28 23:32N 40°40' W 074°04'0 0.0
2014-Aug-28 22:32N 40°40' W 074°04'0 0.0
2014-Aug-28 21:32N 40°40' W 074°04'0 0.0
2014-Aug-28 20:32N 40°40' W 074°04'0 0.0
2014-Aug-28 19:32N 40°40' W 074°04'0 0.0
2014-Aug-28 18:32N 40°40' W 074°04'0 0.0
2014-Aug-28 17:32N 40°40' W 074°04'0 0.0
2014-Aug-28 16:32N 40°40' W 074°04'0 0.0
2014-Aug-28 15:32N 40°40' W 074°04'0 0.0
2014-Aug-28 14:32N 40°40' W 074°04'0 0.0
2014-Aug-28 13:32N 40°40' W 074°04'0 0.0
2014-Aug-28 12:32N 40°40' W 074°04'0 0.0
2014-Aug-28 11:33N 40°40' W 074°04'5 5.0
2014-Aug-28 10:33N 40°35' W 074°02'1312.8
2014-Aug-28 09:33N 40°27' W 073°49'1211.9
2014-Aug-28 08:33N 40°20' W 073°36'1312.6
2014-Aug-28 07:34N 40°13' W 073°23'1312.5
2014-Aug-28 06:33N 40°05' W 073°10'1312.7
2014-Aug-28 05:33N 39°57' W 072°58'1312.7
2014-Aug-28 04:34N 39°48' W 072°45'1312.9
2014-Aug-28 03:34N 39°38' W 072°34'1312.5
2014-Aug-28 02:30N 39°29' W 072°23'1212.9
2014-Aug-28 01:33N 39°20' W 072°12'1312.9
2014-Aug-28 00:33N 39°10' W 072°01'1313.0
2014-Aug-27 23:34N 39°01' W 071°50'1613.8
2014-Aug-27 22:26N 38°49' W 071°36'1214.0
2014-Aug-27 21:33N 38°40' W 071°26'1413.8
2014-Aug-27 20:31N 38°29' W 071°14'  
2014-Aug-25 10:00N 33°00' W 065°12'41516.1 190 / 25 22.0
2014-Aug-24 08:10N 38°05' W 070°58'1319.0
2014-Aug-24 07:30N 38°14' W 071°09'1919.6
2014-Aug-24 06:33N 38°27' W 071°26'1919.3
2014-Aug-24 05:33N 38°41' W 071°43'1918.7
2014-Aug-24 04:33N 38°54' W 071°60'1919.3
2014-Aug-24 03:33N 39°08' W 072°18'1919.4
2014-Aug-24 02:33N 39°23' W 072°34'2019.1
2014-Aug-24 01:30N 39°37' W 072°52'1819.3
2014-Aug-24 00:33N 39°50' W 073°09'1919.2
2014-Aug-23 23:33N 40°05' W 073°24'2118.8
2014-Aug-23 22:27N 40°20' W 073°42'1415.3
2014-Aug-23 21:33N 40°30' W 073°56'1212.2
2014-Aug-23 20:34N 40°40' W 074°04'0 0.1
2014-Aug-23 19:33N 40°40' W 074°04'  

Dump ship's entire track history